Airfield :
LOGIN :

Register | Disclaimer

   EN    FR    IT 

 










Legend :    VFR   Marginal VFR   IFR   Intensive IFR   Very Intensive IFR
Visi :
Ceiling :
>= 8 km
>= 3000ft
5 to 8 km
1000 to 3000 ft
1500m to 5 km
500 to 1000 ft
800 to 1500m
200 to 500 ft
< 800m
< 200 ft
Symbols :   Thunderstorms  Fog  Heavy snow  Heavy precipitations  Wind > 20 kt
SIGMETs :     Misc.  Thunderstorms  Icing  Turbulence  Mountain Waves  Volcanic Ashes







- Airport Elevation : 37 ft


EGOW - Woodvale

CURRENT METAR :
  • 241250Z 16013KT 9999 FEW045 17/12 Q1017 BLU

EXPIRED METARs :
  • 241150Z 15012KT 9999 FEW045 17/12 Q1017 BLU
  • 241050Z 15012KT 9999 FEW045 16/11 Q1017 BLU

TAF TAF EGOW
Valid from the 24 at 12:00 until the 24 at 18:00 UTC


241041Z 2412/2418 15014KT CAVOK
PROB30
TEMPO 2412/2415 SCT020
TEMPO 2415/2418 7000 SHRA
No reported NOTAMs for that airfield.



MET'MAP, your aeronautical weather chart ! - Copyright ORBIFLY December 2007 - Disclaimer

ORBIFLY MET'MAP TEAM :

Programming & Development : Alexandra Zaïnal
Concept & Development : Baudouin d'Aumeries
Co-Development & Prog : Marc-Olivier Méhu
Technical & hardware support : Manuel Goepfert

Contact : metmap@orbifly.com




SOURCES & CREDITS :

   NOAA